Time;durP1;ratioP1;P1;durP2;ratioP2;P2;SDS_P1;SDS_P2;PMS_P1;PMS_P2;Temp;Humidity;BMP_temperature;BMP_pressure;BME280_temperature;BME280_humidity;BME280_pressure;Samples;Min_cycle;Max_cycle;Signal;HPM_P1;HPM_P2
2022/04/17 00:02:22;;;;;;;41.92;19.80;;;;;;;3.33;70.79;98214.40;1828994;78;27592;-73
2022/04/17 00:04:48;;;;;;;44.73;21.33;;;;;;;3.34;70.80;98212.08;1828897;77;25640;-72
2022/04/17 00:07:15;;;;;;;40.30;19.48;;;;;;;3.31;70.84;98209.20;1829045;78;25735;-76
2022/04/17 00:09:43;;;;;;;38.67;19.30;;;;;;;3.28;70.94;98212.16;1828689;78;25747;-75
2022/04/17 00:12:11;;;;;;;35.33;18.55;;;;;;;3.20;70.97;98210.23;1829028;78;25720;-73
2022/04/17 00:14:37;;;;;;;33.33;17.87;;;;;;;3.15;71.05;98206.30;1846790;76;27599;-75
2022/04/17 00:17:04;;;;;;;30.45;17.65;;;;;;;3.06;71.00;98202.69;1869100;75;25992;-73
2022/04/17 00:19:31;;;;;;;30.60;17.20;;;;;;;2.99;71.13;98204.27;1869118;76;25718;-74
2022/04/17 00:21:58;;;;;;;29.72;16.15;;;;;;;2.96;71.22;98200.55;1869283;76;25675;-75
2022/04/17 00:24:27;;;;;;;30.80;17.55;;;;;;;2.89;71.37;98209.63;1868715;76;25393;-76
2022/04/17 00:26:53;;;;;;;33.25;17.00;;;;;;;2.85;71.46;98210.05;1869318;76;27386;-73
2022/04/17 00:29:20;;;;;;;36.50;18.10;;;;;;;2.88;71.60;98202.61;1869113;76;25176;-73
2022/04/17 00:31:47;;;;;;;31.48;17.65;;;;;;;2.84;71.56;98195.03;1869288;76;25207;-72
2022/04/17 00:34:13;;;;;;;36.17;20.17;;;;;;;2.83;71.59;98196.01;1869168;76;25662;-77
2022/04/17 00:36:40;;;;;;;34.03;18.82;;;;;;;2.78;71.59;98197.77;1869264;75;25710;-73
2022/04/17 00:39:06;;;;;;;33.50;17.40;;;;;;;2.72;71.50;98200.17;1869002;76;28146;-73
2022/04/17 00:41:33;;;;;;;32.70;18.07;;;;;;;2.67;71.63;98201.92;1869079;76;25823;-73
2022/04/17 00:44:00;;;;;;;36.70;18.80;;;;;;;2.61;71.66;98197.66;1869147;76;25692;-73
2022/04/17 00:46:26;;;;;;;38.40;19.82;;;;;;;2.51;71.69;98197.19;1869198;76;25424;-72
2022/04/17 00:48:53;;;;;;;35.23;19.52;;;;;;;2.49;71.93;98191.16;1869203;76;25736;-74
2022/04/17 00:51:19;;;;;;;32.65;19.80;;;;;;;2.52;71.90;98194.87;1869073;76;26874;-75
2022/04/17 00:53:46;;;;;;;38.83;19.73;;;;;;;2.53;71.90;98195.72;1868951;76;26069;-76
2022/04/17 00:56:13;;;;;;;35.98;18.00;;;;;;;2.51;71.84;98199.02;1868822;76;25591;-72
2022/04/17 00:58:40;;;;;;;34.70;18.57;;;;;;;2.46;71.74;98196.77;1869033;76;25849;-75
2022/04/17 01:01:07;;;;;;;33.85;17.75;;;;;;;2.39;71.62;98192.99;1869249;76;25646;-76
2022/04/17 01:03:33;;;;;;;31.93;18.23;;;;;;;2.34;71.58;98193.89;1868922;76;27365;-73
2022/04/17 01:06:01;;;;;;;32.85;18.48;;;;;;;2.30;71.58;98185.82;1869097;76;25674;-73
2022/04/17 01:08:28;;;;;;;36.15;17.48;;;;;;;2.23;71.50;98187.87;1869085;76;25676;-74
2022/04/17 01:10:55;;;;;;;30.72;15.93;;;;;;;2.18;71.58;98188.27;1869106;76;25737;-72
2022/04/17 01:13:22;;;;;;;30.23;16.65;;;;;;;2.12;71.59;98187.52;1869015;76;25803;-73
2022/04/17 01:15:49;;;;;;;31.73;17.12;;;;;;;2.07;71.58;98184.42;1860909;76;26912;-72
2022/04/17 01:18:16;;;;;;;35.75;17.45;;;;;;;2.02;71.60;98181.34;1859327;77;25524;-73
2022/04/17 01:20:42;;;;;;;31.90;17.77;;;;;;;1.97;71.61;98186.23;1859637;77;25716;-74
2022/04/17 01:28:40;;;;;;;44.05;22.67;;;;;;;1.76;71.85;98183.20;1859605;77;27348;-72
2022/04/17 01:31:07;;;;;;;34.27;19.57;;;;;;;1.63;71.88;98189.75;1859508;77;25419;-73
2022/04/17 01:33:33;;;;;;;40.15;20.60;;;;;;;1.58;71.86;98184.83;1859551;77;25749;-74
2022/04/17 01:36:00;;;;;;;37.15;20.02;;;;;;;1.53;72.01;98187.56;1859532;77;25740;-73
2022/04/17 01:38:26;;;;;;;37.95;19.87;;;;;;;1.52;72.10;98181.40;1864809;75;25734;-73
2022/04/17 01:40:53;;;;;;;33.08;16.90;;;;;;;1.40;72.02;98187.31;1894495;74;27336;-73
2022/04/17 01:43:20;;;;;;;31.15;16.77;;;;;;;1.37;72.31;98181.41;1894436;75;25425;-74
2022/04/17 01:45:46;;;;;;;32.23;16.85;;;;;;;1.38;72.39;98176.45;1894293;75;25696;-72
2022/04/17 01:48:13;;;;;;;33.75;16.82;;;;;;;1.40;72.42;98183.33;1894384;75;25602;-73
2022/04/17 01:50:39;;;;;;;31.57;16.65;;;;;;;1.41;72.41;98181.50;1894589;75;25445;-73
2022/04/17 01:53:06;;;;;;;30.25;17.80;;;;;;;1.40;72.38;98182.48;1894645;75;27189;-72
2022/04/17 01:55:34;;;;;;;30.40;16.87;;;;;;;1.43;72.43;98179.56;1894325;74;25411;-72
2022/04/17 01:58:01;;;;;;;36.63;19.50;;;;;;;1.33;72.31;98176.00;1855763;77;25664;-73
2022/04/17 02:00:28;;;;;;;40.30;20.43;;;;;;;1.24;72.37;98168.84;1894469;75;25515;-72
2022/04/17 02:02:54;;;;;;;31.77;18.57;;;;;;;1.17;72.45;98177.01;1894458;75;25561;-73
2022/04/17 02:05:21;;;;;;;28.70;16.07;;;;;;;1.14;72.62;98174.13;1894542;75;27443;-72
2022/04/17 02:07:47;;;;;;;28.12;15.85;;;;;;;1.14;72.60;98169.29;1894429;75;26065;-76
2022/04/17 02:10:19;;;;;;;27.60;15.18;;;;;;;1.08;72.53;98170.20;1894531;75;25785;-73
2022/04/17 02:12:42;;;;;;;28.67;16.40;;;;;;;1.08;72.64;98173.34;1889224;74;26019;-72
2022/04/17 02:15:09;;;;;;;27.00;16.75;;;;;;;1.10;72.63;98170.03;1894100;75;25698;-75
2022/04/17 02:17:36;;;;;;;27.10;17.02;;;;;;;1.06;72.62;98166.83;1894069;75;26857;-73
2022/04/17 02:20:03;;;;;;;26.75;15.70;;;;;;;1.00;72.58;98170.00;1894370;75;25199;-73
2022/04/17 02:22:30;;;;;;;27.65;15.93;;;;;;;0.96;72.67;98168.61;1894531;75;25704;-73
2022/04/17 02:24:57;;;;;;;27.00;15.70;;;;;;;0.96;72.75;98168.61;1894333;75;26163;-76
2022/04/17 02:27:24;;;;;;;32.25;17.37;;;;;;;0.94;72.80;98171.87;1894413;75;25574;-73
2022/04/17 02:29:50;;;;;;;32.53;16.70;;;;;;;0.94;72.92;98167.89;1894277;75;27447;-72
2022/04/17 02:32:17;;;;;;;29.77;17.42;;;;;;;0.94;72.93;98171.03;1894391;75;25681;-71
2022/04/17 02:34:43;;;;;;;32.65;18.75;;;;;;;0.90;73.03;98169.12;1894025;75;25655;-72
2022/04/17 02:37:10;;;;;;;29.98;18.10;;;;;;;0.83;73.05;98163.98;1894569;75;25521;-76
2022/04/17 02:39:37;;;;;;;32.45;18.37;;;;;;;0.83;73.27;98165.32;1881438;74;25674;-76
2022/04/17 02:42:05;;;;;;;35.95;17.60;;;;;;;0.81;73.37;98165.09;1890778;75;27367;-73
2022/04/17 02:44:31;;;;;;;34.20;17.50;;;;;;;0.84;73.48;98169.66;1893066;75;25607;-73
2022/04/17 02:49:44;;;;;;;31.85;18.55;;;;;;;0.84;73.40;98157.70;1893229;75;26174;-75
2022/04/17 02:52:10;;;;;;;30.05;17.40;;;;;;;0.82;73.44;98158.31;1893470;75;25709;-76
2022/04/17 02:54:38;;;;;;;32.55;18.05;;;;;;;0.81;73.50;98161.10;1893202;75;27345;-73
2022/04/17 02:57:05;;;;;;;30.75;17.50;;;;;;;0.85;73.57;98150.54;1893588;75;25637;-73
2022/04/17 02:59:32;;;;;;;29.25;16.97;;;;;;;0.86;73.49;98154.40;1893468;75;25798;-73
2022/04/17 03:07:29;;;;;;;25.80;15.20;;;;;;;0.82;73.50;98151.67;1893552;74;27405;-72
2022/04/17 03:09:55;;;;;;;29.37;17.23;;;;;;;0.75;73.44;98148.33;1893448;75;25682;-75
2022/04/17 03:12:23;;;;;;;30.35;17.40;;;;;;;0.69;73.52;98157.69;1893497;74;25678;-76
2022/04/17 03:14:50;;;;;;;30.77;18.52;;;;;;;0.69;73.67;98157.69;1894542;75;25885;-74
2022/04/17 03:17:16;;;;;;;29.32;18.60;;;;;;;0.71;73.74;98161.06;1903616;75;25629;-71
2022/04/17 03:19:43;;;;;;;31.77;20.15;;;;;;;0.72;73.78;98166.21;1903358;75;28168;-72
2022/04/17 03:22:10;;;;;;;31.27;17.10;;;;;;;0.73;73.89;98165.24;1903625;75;25580;-74
2022/04/17 03:24:36;;;;;;;29.18;17.45;;;;;;;0.71;73.95;98171.20;1903534;75;25733;-73
2022/04/17 03:27:03;;;;;;;29.85;17.10;;;;;;;0.73;74.08;98165.24;1903001;74;25813;-73
2022/04/17 03:29:33;;;;;;;31.70;18.62;;;;;;;0.67;74.05;98172.91;1901004;74;25700;-73
2022/04/17 03:32:00;;;;;;;27.17;17.30;;;;;;;0.70;74.10;98175.31;1900946;74;27432;-74
2022/04/17 03:34:26;;;;;;;34.23;17.92;;;;;;;0.72;74.20;98176.03;1900361;75;25669;-72
2022/04/17 03:36:53;;;;;;;28.15;18.32;;;;;;;0.75;74.34;98171.76;1901054;74;25736;-72
2022/04/17 03:39:20;;;;;;;29.95;17.87;;;;;;;0.78;74.43;98174.16;1903409;74;26141;-75
2022/04/17 03:41:47;;;;;;;30.70;18.50;;;;;;;0.80;74.45;98172.70;1903091;75;25891;-73
2022/04/17 03:44:14;;;;;;;59.90;33.90;;;;;;;0.77;74.47;98176.45;1902734;75;27441;-73
2022/04/17 03:46:41;;;;;;;83.20;46.15;;;;;;;0.69;74.51;98180.27;1902883;75;26226;-71
2022/04/17 03:49:08;;;;;;;74.95;44.20;;;;;;;0.71;74.68;98179.66;1903340;75;25755;-73
2022/04/17 03:51:35;;;;;;;68.17;41.20;;;;;;;0.71;74.72;98172.53;1903073;75;26163;-75
2022/04/17 03:54:02;;;;;;;69.95;39.88;;;;;;;0.73;74.79;98172.37;1903075;75;25669;-74
2022/04/17 03:56:29;;;;;;;65.35;37.38;;;;;;;0.72;74.82;98171.53;1903357;75;27426;-73
2022/04/17 03:58:56;;;;;;;58.65;34.23;;;;;;;0.76;74.91;98170.78;1903165;75;25214;-74
2022/04/17 04:01:22;;;;;;;66.45;37.05;;;;;;;0.77;74.87;98170.30;1903039;75;25778;-73
2022/04/17 04:03:50;;;;;;;68.75;40.00;;;;;;;0.79;74.96;98171.02;1903141;74;25365;-72
2022/04/17 04:06:17;;;;;;;49.75;30.57;;;;;;;0.76;74.95;98178.77;1903232;75;25702;-72
2022/04/17 04:08:44;;;;;;;52.90;32.30;;;;;;;0.71;74.92;98173.02;1903059;75;27406;-72
2022/04/17 04:11:10;;;;;;;65.35;39.03;;;;;;;0.75;75.00;98180.22;1903088;75;25753;-73
2022/04/17 04:13:37;;;;;;;71.97;42.20;;;;;;;0.73;74.98;98174.55;1903227;74;26328;-76
2022/04/17 04:16:04;;;;;;;73.72;42.35;;;;;;;0.76;75.03;98177.43;1899625;75;25721;-73
2022/04/17 04:18:31;;;;;;;73.45;42.00;;;;;;;0.79;75.07;98179.83;1865776;76;25250;-73
2022/04/17 04:20:58;;;;;;;69.53;40.45;;;;;;;0.85;75.15;98173.97;1866025;76;27726;-72
2022/04/17 04:23:24;;;;;;;82.22;46.53;;;;;;;0.89;75.12;98175.41;1865445;76;25211;-72
2022/04/17 04:25:51;;;;;;;77.85;44.55;;;;;;;0.92;75.14;98180.47;1866359;76;25789;-73
2022/04/17 04:28:33;;;;;;;78.97;43.87;;;;;;;0.89;75.15;98175.41;1865968;76;25659;-76
2022/04/17 04:31:01;;;;;;;67.05;37.80;;;;;;;0.91;75.23;98173.46;1866572;76;25713;-73
2022/04/17 04:33:29;;;;;;;62.53;36.35;;;;;;;0.96;75.24;98178.39;1875969;76;27351;-73
2022/04/17 04:35:56;;;;;;;64.32;39.83;;;;;;;0.93;75.25;98179.49;1875711;76;25665;-73
2022/04/17 04:38:22;;;;;;;72.00;40.58;;;;;;;0.92;75.31;98172.98;1876057;76;25705;-73
2022/04/17 04:40:50;;;;;;;61.58;35.80;;;;;;;0.96;75.40;98173.92;1875999;76;25674;-73
2022/04/17 04:43:16;;;;;;;58.75;34.27;;;;;;;0.97;75.44;98179.56;1875725;76;25207;-76
2022/04/17 04:51:14;;;;;;;46.73;27.67;;;;;;;0.98;75.75;98177.27;1875276;76;25668;-75
2022/04/17 04:53:41;;;;;;;48.45;29.57;;;;;;;0.97;75.71;98175.58;1875730;76;25615;-72
2022/04/17 04:56:09;;;;;;;45.08;26.35;;;;;;;1.04;75.82;98174.09;1875836;76;25705;-73
2022/04/17 04:58:36;;;;;;;43.17;26.85;;;;;;;1.09;75.77;98172.34;1875897;76;27416;-73
2022/04/17 05:01:03;;;;;;;40.88;26.45;;;;;;;1.09;75.80;98176.33;1875774;76;26281;-73
2022/04/17 05:03:29;;;;;;;43.45;26.90;;;;;;;1.14;75.91;98175.94;1876045;76;25816;-73
2022/04/17 05:05:56;;;;;;;40.12;26.90;;;;;;;1.13;75.84;98179.57;1875935;76;25681;-74
2022/04/17 05:08:22;;;;;;;45.20;28.05;;;;;;;1.10;75.85;98179.34;1876094;76;25796;-74
2022/04/17 05:10:49;;;;;;;40.90;26.20;;;;;;;1.09;75.89;98178.50;1875907;76;28106;-72
2022/04/17 05:13:17;;;;;;;41.80;25.62;;;;;;;1.09;75.96;98176.33;1875923;76;25175;-72
2022/04/17 05:15:43;;;;;;;38.73;24.80;;;;;;;1.10;76.00;98174.02;1875740;75;25749;-73
2022/04/17 05:18:10;;;;;;;36.33;25.50;;;;;;;1.08;75.98;98178.17;1875713;76;25524;-73
2022/04/17 05:20:37;;;;;;;35.95;23.42;;;;;;;1.14;76.04;98170.63;1875524;76;25696;-72
2022/04/17 05:23:17;;;;;;;42.05;26.10;;;;;;;1.17;75.99;98178.34;1875862;76;28148;-74
2022/04/17 05:25:49;;;;;;;39.95;24.25;;;;;;;1.25;75.97;98175.84;1875587;76;25673;-75
2022/04/17 05:28:16;;;;;;;35.90;23.32;;;;;;;1.33;75.89;98173.34;1875835;76;25666;-77
2022/04/17 05:30:46;;;;;;;37.23;23.38;;;;;;;1.43;75.84;98171.58;1875911;76;26098;-74
2022/04/17 05:33:13;;;;;;;40.80;25.25;;;;;;;1.51;75.80;98176.20;1875865;76;26762;-73
2022/04/17 05:35:40;;;;;;;39.40;24.57;;;;;;;1.59;75.73;98170.55;1875818;76;28272;-72
2022/04/17 05:38:06;;;;;;;31.87;21.90;;;;;;;1.66;75.62;98167.71;1875732;76;25575;-76
2022/04/17 05:40:38;;;;;;;35.40;20.90;;;;;;;1.75;75.46;98176.19;1875788;76;26393;-73
2022/04/17 05:43:05;;;;;;;34.43;21.90;;;;;;;1.83;75.28;98178.64;1803011;79;25740;-74
2022/04/17 05:45:32;;;;;;;35.52;21.52;;;;;;;1.89;75.16;98173.63;1802995;79;25763;-73
2022/04/17 05:48:00;;;;;;;34.60;21.33;;;;;;;1.93;75.02;98173.71;1802938;79;27607;-74
2022/04/17 05:50:28;;;;;;;39.42;23.50;;;;;;;1.93;74.83;98172.37;1803044;77;25312;-73
2022/04/17 05:52:55;;;;;;;31.87;20.30;;;;;;;1.94;74.96;98171.86;1801955;79;25804;-73
2022/04/17 05:55:22;;;;;;;33.98;20.72;;;;;;;2.00;74.96;98172.66;1801598;77;26147;-73
2022/04/17 05:57:49;;;;;;;33.35;19.87;;;;;;;2.01;74.91;98171.67;1792741;77;25732;-73
2022/04/17 06:00:16;;;;;;;31.60;20.25;;;;;;;2.06;75.04;98161.42;1771271;80;27570;-74
2022/04/17 06:02:46;;;;;;;31.15;18.98;;;;;;;2.15;75.04;98165.94;1778356;79;25902;-73
2022/04/17 06:05:15;;;;;;;24.87;15.70;;;;;;;2.20;74.83;98159.68;1802880;79;25909;-74
2022/04/17 06:07:41;;;;;;;29.52;17.80;;;;;;;2.28;74.46;98159.84;1802376;79;26630;-76
2022/04/17 06:10:13;;;;;;;28.40;17.12;;;;;;;2.36;74.14;98162.63;1802182;79;25725;-75
2022/04/17 06:12:41;;;;;;;28.30;17.73;;;;;;;2.44;74.03;98158.75;1801564;78;27425;-73
2022/04/17 06:15:10;;;;;;;24.77;15.50;;;;;;;2.54;73.96;98162.23;1801761;79;25748;-76
2022/04/17 06:17:41;;;;;;;29.23;16.27;;;;;;;2.64;73.61;98164.07;1818673;77;25685;-73
2022/04/17 06:20:12;;;;;;;29.18;16.97;;;;;;;2.73;73.49;98159.20;1851264;77;26239;-76
2022/04/17 06:22:38;;;;;;;25.30;16.12;;;;;;;2.81;73.57;98160.16;1832852;77;25754;-73
2022/04/17 06:25:12;;;;;;;26.30;15.58;;;;;;;2.89;73.15;98159.45;1843480;76;27620;-73
2022/04/17 06:27:45;;;;;;;23.92;13.58;;;;;;;2.99;72.94;98159.41;1835929;77;25730;-74
2022/04/17 06:30:16;;;;;;;20.90;12.18;;;;;;;3.08;72.45;98162.04;1811899;77;25891;-76
2022/04/17 06:32:44;;;;;;;23.62;12.55;;;;;;;3.17;72.10;98166.49;1811352;79;25743;-73
2022/04/17 06:35:12;;;;;;;19.90;11.80;;;;;;;3.31;72.12;98168.34;1811222;79;25801;-74
2022/04/17 06:37:59;;;;;;;21.95;11.48;;;;;;;3.41;71.72;98169.97;1820585;77;27371;-73
2022/04/17 06:40:33;;;;;;;18.48;10.58;;;;;;;3.48;71.53;98165.73;1791443;79;25708;-75
2022/04/17 06:43:05;;;;;;;21.55;11.55;;;;;;;3.58;71.15;98166.52;1771482;80;25922;-77
2022/04/17 06:45:35;;;;;;;18.35;11.43;;;;;;;3.68;71.01;98162.45;1781572;77;25777;-73
2022/04/17 06:48:22;;;;;;;17.77;11.12;;;;;;;3.75;70.64;98162.19;1833326;77;25795;-73
2022/04/17 06:50:52;;;;;;;20.57;11.40;;;;;;;3.81;70.42;98155.41;1837377;77;28208;-74
2022/04/17 06:53:20;;;;;;;18.37;9.60;;;;;;;3.88;70.25;98159.98;1831709;77;25861;-76
2022/04/17 06:55:48;;;;;;;16.97;9.85;;;;;;;3.97;69.98;98162.27;1824508;77;25755;-77
2022/04/17 06:58:17;;;;;;;24.07;11.88;;;;;;;4.10;69.74;98157.89;1819784;78;25750;-78
2022/04/17 07:00:44;;;;;;;20.50;9.40;;;;;;;4.19;69.23;98159.14;1820238;78;25830;-74
2022/04/17 07:03:10;;;;;;;20.68;11.35;;;;;;;4.25;68.62;98156.34;1821615;78;27403;-75
2022/04/17 07:05:37;;;;;;;213.68;131.63;;;;;;;4.32;68.56;98154.26;1820723;78;25839;-74
2022/04/17 07:08:06;;;;;;;61.50;26.35;;;;;;;4.44;68.54;98157.53;1821314;78;25761;-74
2022/04/17 07:10:37;;;;;;;26.93;14.23;;;;;;;4.56;68.36;98160.30;1821054;78;25829;-77
2022/04/17 07:13:07;;;;;;;21.25;11.10;;;;;;;4.72;67.85;98154.20;1821287;78;25826;-78
2022/04/17 07:15:34;;;;;;;13.38;7.78;;;;;;;4.85;67.78;98157.81;1757869;81;27541;-74
2022/04/17 07:18:01;;;;;;;12.18;7.33;;;;;;;5.00;67.37;98159.76;1734027;81;25889;-76
2022/04/17 07:20:27;;;;;;;11.63;7.12;;;;;;;5.18;67.41;98161.05;1735768;82;25807;-73
2022/04/17 07:22:54;;;;;;;11.48;7.55;;;;;;;5.36;67.11;98160.45;1735754;82;25824;-74
2022/04/17 07:25:21;;;;;;;12.85;7.55;;;;;;;5.54;66.80;98154.19;1735874;82;25748;-77
2022/04/17 07:27:50;;;;;;;9.95;6.55;;;;;;;5.74;67.04;98152.91;1756799;80;28349;-73
2022/04/17 07:30:24;;;;;;;29.60;10.72;;;;;;;6.02;66.52;98153.02;1756608;81;25285;-74
2022/04/17 07:32:53;;;;;;;13.00;6.10;;;;;;;6.27;65.60;98150.38;1759718;80;25887;-75
2022/04/17 07:35:22;;;;;;;8.83;5.28;;;;;;;6.43;65.00;98155.73;1762710;81;25797;-74
2022/04/17 07:37:58;;;;;;;9.20;5.55;;;;;;;6.59;64.58;98163.79;1791128;79;25780;-73
2022/04/17 07:40:28;;;;;;;8.75;5.37;;;;;;;6.52;63.54;98161.42;1735454;82;27449;-74
2022/04/17 07:42:58;;;;;;;8.53;5.40;;;;;;;6.49;63.45;98159.94;1735292;81;25872;-74
2022/04/17 07:45:26;;;;;;;10.32;7.87;;;;;;;6.40;62.71;98164.13;1735115;81;25776;-74
2022/04/17 07:47:53;;;;;;;9.28;5.50;;;;;;;6.35;62.43;98158.42;1734933;81;25797;-78
2022/04/17 07:50:29;;;;;;;12.88;7.20;;;;;;;6.32;62.45;98165.45;1734346;82;25976;-74
2022/04/17 07:52:56;;;;;;;12.63;6.58;;;;;;;6.32;62.39;98157.41;1643036;87;27458;-73
2022/04/17 07:55:23;;;;;;;6.78;4.40;;;;;;;6.31;61.33;98154.38;1621475;87;25742;-73
2022/04/17 08:00:46;;;;;;;6.03;4.10;;;;;;;6.23;61.08;98148.52;1643536;85;25837;-74
2022/04/17 08:05:52;;;;;;;5.15;3.67;;;;;;;6.48;59.53;98150.21;1665234;84;28226;-73
2022/04/17 08:08:19;;;;;;;4.65;3.37;;;;;;;6.57;59.38;98151.05;1665716;85;25917;-74
2022/04/17 08:10:46;;;;;;;4.78;3.47;;;;;;;6.53;58.90;98150.19;1670706;85;25733;-74
2022/04/17 08:13:14;;;;;;;4.15;3.12;;;;;;;6.52;58.94;98148.02;1645362;87;25794;-74
2022/04/17 08:15:41;;;;;;;6.22;3.77;;;;;;;6.64;58.42;98143.98;1643029;85;25870;-74
2022/04/17 08:18:08;;;;;;;5.22;3.27;;;;;;;7.13;58.40;98144.75;1717340;80;28078;-74
2022/04/17 08:20:35;;;;;;;4.05;2.95;;;;;;;7.59;58.10;98143.61;1810186;78;25764;-74
2022/04/17 08:23:02;;;;;;;8.88;4.62;;;;;;;7.69;57.59;98136.67;1807205;78;25724;-76
2022/04/17 08:25:29;;;;;;;14.65;5.92;;;;;;;7.56;56.47;98139.92;1810133;78;26153;-77
2022/04/17 08:27:56;;;;;;;9.90;6.00;;;;;;;7.49;56.32;98141.61;1814074;78;25759;-77
2022/04/17 08:30:26;;;;;;;8.95;6.62;;;;;;;7.35;55.80;98146.39;1810059;78;27540;-72
2022/04/17 08:32:53;;;;;;;12.40;6.85;;;;;;;7.27;56.48;98147.73;1711632;83;26440;-74
2022/04/17 08:35:21;;;;;;;7.28;4.90;;;;;;;7.26;56.87;98138.84;1713425;83;25795;-74
2022/04/17 08:37:49;;;;;;;6.08;3.90;;;;;;;7.42;57.03;98137.45;1727069;81;26791;-75
2022/04/17 08:40:16;;;;;;;6.62;4.25;;;;;;;7.65;56.67;98137.52;1740582;80;25872;-74
2022/04/17 08:42:44;;;;;;;10.28;3.98;;;;;;;7.73;56.61;98133.98;1741236;82;28043;-74
2022/04/17 08:45:12;;;;;;;5.15;3.02;;;;;;;7.91;56.60;98122.44;1741545;82;25748;-74
2022/04/17 08:47:42;;;;;;;5.47;3.33;;;;;;;8.27;55.77;98117.33;1741105;80;25745;-75
2022/04/17 08:50:12;;;;;;;6.62;3.67;;;;;;;8.34;55.38;98109.39;1741172;80;26057;-74
2022/04/17 08:52:41;;;;;;;7.55;4.03;;;;;;;8.22;54.94;98119.70;1677073;85;25773;-77
2022/04/17 08:55:09;;;;;;;5.20;3.20;;;;;;;8.50;53.71;98124.06;1676921;85;28138;-73
2022/04/17 08:57:35;;;;;;;27.77;19.07;;;;;;;8.65;53.71;98107.46;1688271;84;25802;-76
2022/04/17 09:00:08;;;;;;;4.75;3.45;;;;;;;8.53;53.68;98108.41;1662167;85;25873;-76
2022/04/17 09:02:39;;;;;;;5.90;3.17;;;;;;;8.53;53.72;98110.26;1688710;84;26313;-76
2022/04/17 09:05:11;;;;;;;4.53;2.92;;;;;;;8.52;53.63;98113.97;1688599;84;25294;-76
2022/04/17 09:07:53;;;;;;;5.92;3.77;;;;;;;8.47;53.70;98108.28;1688201;84;29112;-74
2022/04/17 09:10:32;;;;;;;4.60;3.45;;;;;;;8.70;54.39;98097.48;1624773;86;34884;-74
2022/04/17 09:13:05;;;;;;;5.15;3.33;;;;;;;8.60;53.65;98105.81;1558046;92;26493;-77
2022/04/17 09:15:35;;;;;;;6.20;3.75;;;;;;;8.60;53.52;98100.43;1533441;92;26313;-74
2022/04/17 09:18:07;;;;;;;5.78;3.80;;;;;;;8.57;52.79;98103.52;1533522;92;25851;-77
2022/04/17 09:20:34;;;;;;;4.83;3.25;;;;;;;8.46;53.03;98102.06;1570597;90;28407;-75
2022/04/17 09:23:01;;;;;;;93.15;55.25;;;;;;;8.42;52.77;98095.39;1571950;91;25318;-74
2022/04/17 09:25:29;;;;;;;12.30;7.17;;;;;;;8.52;52.59;98100.52;1560339;90;25853;-76
2022/04/17 09:28:08;;;;;;;6.95;3.45;;;;;;;8.85;52.83;98089.76;1572091;91;25941;-74
2022/04/17 09:30:42;;;;;;;25.15;7.35;;;;;;;9.19;52.18;98087.03;1560294;91;25823;-78
2022/04/17 09:33:13;;;;;;;211.77;104.43;;;;;;;9.20;51.01;98080.11;1565543;90;27282;-75
2022/04/17 09:35:41;;;;;;;22.93;12.90;;;;;;;9.07;51.08;98088.52;1592246;85;25864;-74
2022/04/17 09:38:11;;;;;;;7.03;4.08;;;;;;;9.00;51.44;98078.50;1654195;85;26917;-75
2022/04/17 09:40:38;;;;;;;3.33;2.42;;;;;;;8.91;50.67;98085.00;1656941;85;26321;-74
2022/04/17 09:43:13;;;;;;;2.72;2.00;;;;;;;8.77;50.58;98077.73;1637887;87;25821;-76
2022/04/17 09:46:00;;;;;;;2.83;2.02;;;;;;;8.47;50.27;98079.52;1638175;87;27503;-74
2022/04/17 09:48:39;;;;;;;4.17;2.30;;;;;;;8.32;50.78;98072.45;1667948;85;25839;-77
2022/04/17 09:51:23;;;;;;;130.93;72.10;;;;;;;8.29;50.97;98078.48;1655213;86;25805;-74
2022/04/17 09:54:06;;;;;;;8.33;5.17;;;;;;;8.34;50.74;98077.95;1659180;86;25909;-74
2022/04/17 09:56:40;;;;;;;4.33;2.65;;;;;;;8.27;49.81;98068.41;1647162;86;25926;-74
2022/04/17 09:59:21;;;;;;;4.10;1.92;;;;;;;8.02;49.71;98068.26;1649631;86;27332;-73
2022/04/17 10:01:53;;;;;;;14.25;4.53;;;;;;;8.00;50.19;98062.73;1651148;85;25838;-73
2022/04/17 10:04:22;;;;;;;9.65;3.87;;;;;;;8.12;50.31;98063.47;1654379;85;25842;-74
2022/04/17 10:06:51;;;;;;;18.57;5.58;;;;;;;8.18;50.10;98065.97;1669132;84;25991;-74
2022/04/17 10:09:18;;;;;;;74.60;32.55;;;;;;;8.21;49.48;98059.70;1727185;83;25274;-77
2022/04/17 10:11:46;;;;;;;21.73;8.95;;;;;;;8.24;49.98;98060.69;1719036;81;28367;-74
2022/04/17 10:14:15;;;;;;;32.33;8.83;;;;;;;8.33;49.93;98057.98;1719094;83;26533;-74
2022/04/17 10:16:46;;;;;;;18.80;6.42;;;;;;;8.39;49.52;98050.52;1716274;83;26014;-74
2022/04/17 10:19:16;;;;;;;4.80;2.80;;;;;;;8.52;49.37;98058.80;1767664;80;25797;-74
2022/04/17 10:21:47;;;;;;;6.78;3.30;;;;;;;8.72;49.92;98052.38;1800577;79;25803;-75
2022/04/17 10:24:17;;;;;;;13.70;4.42;;;;;;;8.91;50.05;98051.86;1789740;80;27538;-76
2022/04/17 10:26:50;;;;;;;4.42;2.92;;;;;;;9.02;49.48;98041.45;1789743;80;25763;-73
2022/04/17 10:29:42;;;;;;;5.15;2.92;;;;;;;9.08;49.10;98041.72;1785802;80;25967;-73
2022/04/17 10:32:28;;;;;;;29.92;10.93;;;;;;;9.12;49.15;98037.64;1771022;80;26199;-76
2022/04/17 10:35:52;;;;;;;8.38;3.55;;;;;;;9.11;48.29;98035.97;1753434;81;25862;-74
2022/04/17 10:38:43;;;;;;;21.70;6.50;;;;;;;9.08;48.61;98030.94;1783619;80;27377;-74
2022/04/17 10:43:51;;;;;;;13.48;4.65;;;;;;;8.70;47.27;98035.06;1768464;79;25794;-73
2022/04/17 10:46:19;;;;;;;8.95;4.17;;;;;;;8.44;46.99;98038.72;1756104;81;26599;-74
2022/04/17 10:51:34;;;;;;;14.25;7.87;;;;;;;8.27;47.86;98029.41;1794793;79;27628;-75
2022/04/17 10:54:11;;;;;;;25.52;8.48;;;;;;;8.22;47.42;98026.41;1794727;79;25829;-76
2022/04/17 10:56:40;;;;;;;7.08;3.22;;;;;;;8.09;47.47;98024.84;1805084;78;25921;-73
2022/04/17 10:59:19;;;;;;;2.87;2.20;;;;;;;8.03;47.77;98018.02;1813109;79;26054;-74
2022/04/17 11:01:52;;;;;;;5.55;3.30;;;;;;;8.03;47.70;98019.36;1809349;78;26473;-74
2022/04/17 11:04:40;;;;;;;5.37;3.10;;;;;;;8.10;48.13;98009.03;1793373;79;27632;-74
2022/04/17 11:07:12;;;;;;;5.55;2.75;;;;;;;8.47;49.23;98009.56;1778777;80;25746;-75
2022/04/17 11:09:42;;;;;;;;;;;;;;;8.79;48.49;98000.33;1770283;79;25960;-74
2022/04/17 11:12:27;;;;;;;3.22;2.27;;;;;;;8.88;47.40;97999.20;1764073;81;25758;-75
2022/04/17 11:15:07;;;;;;;5.40;3.10;;;;;;;8.97;47.40;98001.28;1781524;79;26479;-77
2022/04/17 11:17:34;;;;;;;15.45;6.03;;;;;;;9.05;47.46;97993.64;1783048;80;28198;-74
2022/04/17 11:20:02;;;;;;;8.38;3.70;;;;;;;9.14;47.56;97989.81;1772276;79;25881;-74
2022/04/17 11:22:37;;;;;;;11.50;5.03;;;;;;;9.16;46.88;97988.61;1824103;78;25767;-72
2022/04/17 11:25:11;;;;;;;5.25;3.15;;;;;;;9.27;46.99;97983.24;1819435;78;25711;-72
2022/04/17 11:27:41;;;;;;;4.05;2.77;;;;;;;9.44;47.30;97977.94;1823785;78;25849;-74
2022/04/17 11:30:25;;;;;;;4.08;2.50;;;;;;;9.77;46.73;97970.73;1814276;78;28411;-72
2022/04/17 11:32:53;;;;;;;6.20;3.05;;;;;;;9.87;46.29;97961.80;1820064;78;25745;-72
2022/04/17 11:35:26;;;;;;;5.47;3.05;;;;;;;10.24;46.44;97971.49;1828291;78;25911;-72
2022/04/17 11:37:57;;;;;;;3.50;2.40;;;;;;;10.63;46.28;97966.36;1756149;81;25833;-74
2022/04/17 11:40:27;;;;;;;4.12;3.10;;;;;;;11.09;45.88;97953.13;1668997;85;25804;-74
2022/04/17 11:42:56;;;;;;;7.15;3.92;;;;;;;11.56;45.85;97948.70;1668870;85;27360;-74
2022/04/17 11:45:26;;;;;;;5.05;3.40;;;;;;;11.67;45.18;97946.75;1692865;84;26495;-72
2022/04/17 11:47:55;;;;;;;3.50;2.47;;;;;;;11.63;44.63;97946.84;1671299;85;25741;-73
2022/04/17 11:50:28;;;;;;;3.17;2.37;;;;;;;11.52;44.30;97946.92;1680197;85;26087;-73
2022/04/17 11:53:14;;;;;;;3.17;2.00;;;;;;;11.29;43.71;97945.60;1680372;85;25879;-72
2022/04/17 11:55:44;;;;;;;3.65;2.17;;;;;;;10.91;43.35;97958.73;1680445;85;27383;-72
2022/04/17 11:58:26;;;;;;;2.37;2.12;;;;;;;10.44;42.85;97954.92;1680198;85;25728;-72
2022/04/17 12:01:05;;;;;;;3.72;2.20;;;;;;;9.92;43.59;97947.20;1680548;85;25760;-72
2022/04/17 12:03:38;;;;;;;5.00;3.00;;;;;;;9.53;43.54;97946.33;1680264;85;25913;-75
2022/04/17 12:06:06;;;;;;;4.72;2.62;;;;;;;9.26;44.20;97947.90;1653365;85;25867;-80
2022/04/17 12:08:34;;;;;;;4.05;2.95;;;;;;;9.19;44.52;97941.58;1653814;86;27419;-76
2022/04/17 12:11:02;;;;;;;3.92;2.37;;;;;;;9.19;44.35;97942.92;1634210;86;25950;-74
2022/04/17 12:13:29;;;;;;;7.00;3.95;;;;;;;9.22;44.13;97933.13;1617163;86;36373;-74